Time;durP1;ratioP1;P1;durP2;ratioP2;P2;SDS_P1;SDS_P2;PMS_P1;PMS_P2;Temp;Humidity;BMP_temperature;BMP_pressure;BME280_temperature;BME280_humidity;BME280_pressure;Samples;Min_cycle;Max_cycle;Signal;HPM_P1;HPM_P2
2021/06/29 00:01:42;;;;;;;21.67;19.70;;;20.50;99.90;;;;;;5118739;27;20487;-72
2021/06/29 00:04:09;;;;;;;23.10;21.40;;;20.50;99.90;;;;;;5114484;28;20872;-71
2021/06/29 00:06:36;;;;;;;26.07;24.07;;;20.50;99.90;;;;;;5120498;27;20791;-75
2021/06/29 00:09:03;;;;;;;27.20;25.20;;;20.50;99.90;;;;;;5112411;28;20453;-72
2021/06/29 00:11:30;;;;;;;28.07;25.70;;;20.50;99.90;;;;;;5120685;28;20456;-72
2021/06/29 00:13:57;;;;;;;33.90;30.70;;;20.50;99.90;;;;;;5116977;28;20524;-69
2021/06/29 00:16:24;;;;;;;40.40;36.67;;;20.40;99.90;;;;;;5117777;28;20467;-71
2021/06/29 00:18:53;;;;;;;42.30;38.70;;;20.30;99.90;;;;;;5120360;28;20491;-69
2021/06/29 00:21:20;;;;;;;60.20;39.37;;;20.00;99.90;;;;;;5122404;28;20498;-69
2021/06/29 00:23:46;;;;;;;22.53;21.03;;;20.30;99.90;;;;;;5116471;28;20481;-69
2021/06/29 00:26:14;;;;;;;21.07;19.87;;;20.20;99.90;;;;;;5118448;28;20465;-69
2021/06/29 00:28:40;;;;;;;19.47;18.47;;;19.90;99.90;;;;;;5113975;28;20471;-71
2021/06/29 00:31:08;;;;;;;19.47;18.47;;;19.60;99.90;;;;;;5113565;28;20486;-71
2021/06/29 00:33:35;;;;;;;28.97;20.73;;;19.40;99.90;;;;;;5117831;28;20571;-71
2021/06/29 00:36:03;;;;;;;90.80;24.97;;;19.00;99.90;;;;;;5120637;28;20479;-71
2021/06/29 00:38:30;;;;;;;156.40;29.60;;;18.50;99.90;;;;;;5117972;28;20456;-71
2021/06/29 00:40:57;;;;;;;11.10;10.70;;;18.10;99.90;;;;;;5116463;28;20575;-70
2021/06/29 00:43:24;;;;;;;15.17;13.97;;;18.00;99.90;;;;;;5114382;28;20457;-73
2021/06/29 00:45:50;;;;;;;13.77;12.47;;;17.90;99.90;;;;;;5118133;28;20461;-71
2021/06/29 00:48:17;;;;;;;12.13;11.37;;;18.00;99.90;;;;;;5121215;28;20464;-72
2021/06/29 00:50:45;;;;;;;12.73;12.00;;;18.00;99.90;;;;;;5118529;28;20471;-71
2021/06/29 00:53:14;;;;;;;14.07;13.07;;;18.00;99.90;;;;;;5117888;28;20463;-72
2021/06/29 00:55:42;;;;;;;14.47;13.53;;;18.00;99.90;;;;;;5118115;27;20484;-70
2021/06/29 00:58:09;;;;;;;18.40;16.80;;;18.00;99.90;;;;;;5116033;27;20463;-71
2021/06/29 01:00:36;;;;;;;19.73;18.13;;;18.00;99.90;;;;;;5125482;27;21002;-71
2021/06/29 01:03:04;;;;;;;23.27;21.23;;;18.10;99.90;;;;;;5124985;27;20929;-71
2021/06/29 01:05:31;;;;;;;26.47;23.87;;;18.10;99.90;;;;;;5127349;27;20479;-71
2021/06/29 01:07:59;;;;;;;31.07;28.17;;;18.00;99.90;;;;;;5125783;27;20456;-71
2021/06/29 01:10:28;;;;;;;35.40;31.57;;;18.10;99.90;;;;;;5125737;27;20515;-71
2021/06/29 01:12:55;;;;;;;41.73;37.10;;;18.10;99.90;;;;;;5126076;27;20469;-70
2021/06/29 01:15:23;;;;;;;43.23;36.50;;;18.10;99.90;;;;;;5120517;27;20462;-70
2021/06/29 01:17:51;;;;;;;41.63;36.37;;;18.10;99.90;;;;;;5128918;27;20448;-70
2021/06/29 01:20:24;;;;;;;47.57;39.83;;;18.10;99.90;;;;;;5128028;27;20529;-70
2021/06/29 01:22:54;;;;;;;48.03;41.07;;;18.10;99.90;;;;;;5124720;27;21273;-70
2021/06/29 01:25:23;;;;;;;48.70;40.33;;;18.10;99.90;;;;;;5121622;27;20549;-70
2021/06/29 01:27:57;;;;;;;49.53;41.73;;;18.10;99.90;;;;;;5122864;27;20568;-70
2021/06/29 01:33:08;;;;;;;48.67;38.97;;;18.00;99.90;;;;;;5123705;27;20448;-70
2021/06/29 01:35:39;;;;;;;49.87;39.50;;;18.00;99.90;;;;;;5124500;27;20460;-70
2021/06/29 01:38:06;;;;;;;47.50;40.27;;;18.00;99.90;;;;;;5122367;27;20458;-70
2021/06/29 01:40:33;;;;;;;49.77;42.13;;;18.00;99.90;;;;;;5121311;27;20697;-70
2021/06/29 01:43:01;;;;;;;55.23;40.33;;;18.00;99.90;;;;;;5124894;27;20459;-70
2021/06/29 01:45:29;;;;;;;53.93;39.37;;;17.90;99.90;;;;;;5122791;27;20445;-70
2021/06/29 01:48:01;;;;;;;56.20;43.67;;;17.90;99.90;;;;;;5127765;27;20513;-69
2021/06/29 01:50:28;;;;;;;57.30;42.30;;;17.90;99.90;;;;;;5122488;27;20958;-70
2021/06/29 01:52:58;;;;;;;60.07;44.07;;;17.80;99.90;;;;;;5124330;27;20514;-69
2021/06/29 01:55:27;;;;;;;69.50;44.80;;;17.80;99.90;;;;;;5123343;27;20510;-70
2021/06/29 01:57:54;;;;;;;53.93;44.30;;;17.80;99.90;;;;;;5125480;27;20481;-69
2021/06/29 02:00:22;;;;;;;56.37;43.67;;;17.80;99.90;;;;;;5115914;27;20459;-69
2021/06/29 02:02:49;;;;;;;53.90;43.20;;;17.80;99.90;;;;;;5121259;27;20461;-69
2021/06/29 02:05:17;;;;;;;55.30;42.90;;;17.80;99.90;;;;;;5118421;27;20458;-69
2021/06/29 02:07:44;;;;;;;52.40;41.87;;;17.80;99.90;;;;;;5119284;27;20521;-69
2021/06/29 02:10:15;;;;;;;51.20;40.40;;;17.90;99.90;;;;;;5124417;27;20463;-69
2021/06/29 02:12:44;;;;;;;54.70;41.43;;;17.90;99.90;;;;;;5112727;27;20452;-69
2021/06/29 02:15:14;;;;;;;54.97;42.43;;;17.90;99.90;;;;;;5119996;27;20483;-71
2021/06/29 02:17:41;;;;;;;52.90;41.37;;;17.90;99.90;;;;;;5111769;27;21128;-69
2021/06/29 02:20:11;;;;;;;57.40;41.40;;;17.90;99.90;;;;;;5123300;27;20575;-69
2021/06/29 02:22:38;;;;;;;53.63;40.77;;;17.90;99.90;;;;;;5121935;27;20497;-69
2021/06/29 02:25:06;;;;;;;57.37;41.97;;;17.90;99.90;;;;;;5114009;27;20471;-69
2021/06/29 02:27:34;;;;;;;61.87;41.40;;;17.90;99.90;;;;;;5123909;27;20812;-69
2021/06/29 02:30:01;;;;;;;47.50;38.40;;;17.90;99.90;;;;;;5122154;27;20464;-70
2021/06/29 02:32:29;;;;;;;57.10;40.40;;;18.00;99.90;;;;;;5116706;27;20464;-70
2021/06/29 02:34:56;;;;;;;58.20;41.73;;;17.90;99.90;;;;;;5116472;27;20460;-69
2021/06/29 02:37:23;;;;;;;55.07;41.20;;;17.80;99.90;;;;;;5117566;27;20456;-69
2021/06/29 02:39:51;;;;;;;57.80;41.63;;;17.80;99.90;;;;;;5121031;27;21029;-71
2021/06/29 02:42:18;;;;;;;59.87;42.77;;;17.80;99.90;;;;;;5121655;27;20551;-71
2021/06/29 02:44:48;;;;;;;64.17;41.37;;;17.70;99.90;;;;;;5113743;27;20484;-70
2021/06/29 02:47:16;;;;;;;57.87;42.07;;;17.70;99.90;;;;;;5120757;27;20486;-69
2021/06/29 02:49:43;;;;;;;57.17;41.10;;;17.70;99.90;;;;;;5118971;27;20525;-69
2021/06/29 02:52:10;;;;;;;52.40;39.33;;;17.70;99.90;;;;;;5122507;27;20955;-71
2021/06/29 02:54:37;;;;;;;47.00;38.47;;;17.80;99.90;;;;;;5123018;27;20449;-69
2021/06/29 02:57:04;;;;;;;48.50;36.83;;;17.90;99.90;;;;;;5124141;27;20550;-69
2021/06/29 02:59:31;;;;;;;43.07;35.70;;;17.80;99.90;;;;;;5121748;27;20471;-69
2021/06/29 03:01:59;;;;;;;44.33;33.97;;;17.80;99.90;;;;;;5120283;27;20493;-69
2021/06/29 03:04:26;;;;;;;48.60;36.47;;;17.70;99.90;;;;;;5119537;27;20456;-71
2021/06/29 03:06:53;;;;;;;40.70;34.70;;;17.60;99.90;;;;;;5118252;27;20506;-69
2021/06/29 03:09:20;;;;;;;42.33;34.97;;;17.60;99.90;;;;;;5121457;27;20460;-70
2021/06/29 03:11:47;;;;;;;41.43;36.77;;;17.50;99.90;;;;;;5119619;27;20459;-70
2021/06/29 03:14:14;;;;;;;38.30;33.80;;;17.50;99.90;;;;;;5121299;27;20448;-71
2021/06/29 03:16:41;;;;;;;37.90;33.83;;;17.50;99.90;;;;;;5119106;27;20502;-69
2021/06/29 03:19:09;;;;;;;41.50;34.67;;;17.50;99.90;;;;;;5121824;27;20452;-70
2021/06/29 03:21:37;;;;;;;46.33;35.30;;;17.40;99.90;;;;;;5113378;27;21021;-71
2021/06/29 03:24:05;;;;;;;45.17;36.60;;;17.30;99.90;;;;;;5118172;27;20843;-70
2021/06/29 03:26:33;;;;;;;38.70;32.90;;;17.30;99.90;;;;;;5122963;27;20480;-70
2021/06/29 03:29:00;;;;;;;36.87;32.87;;;17.30;99.90;;;;;;5119351;27;20480;-70
2021/06/29 03:31:26;;;;;;;42.10;31.43;;;17.30;99.90;;;;;;5119240;27;20495;-69
2021/06/29 03:33:53;;;;;;;41.87;33.83;;;17.20;99.90;;;;;;5122545;27;20465;-69
2021/06/29 03:36:21;;;;;;;40.97;32.50;;;17.20;99.90;;;;;;5121250;27;20472;-69
2021/06/29 03:38:48;;;;;;;36.70;32.70;;;17.20;99.90;;;;;;5121512;27;20462;-69
2021/06/29 03:41:15;;;;;;;31.17;28.03;;;17.20;99.90;;;;;;5115463;27;20484;-70
2021/06/29 03:43:42;;;;;;;29.10;26.50;;;17.30;99.90;;;;;;5113842;27;20461;-69
2021/06/29 03:46:08;;;;;;;28.60;25.73;;;17.30;99.90;;;;;;5122941;27;20467;-71
2021/06/29 03:48:35;;;;;;;28.50;25.43;;;17.40;99.90;;;;;;5120752;27;20457;-71
2021/06/29 03:51:02;;;;;;;28.57;25.87;;;17.40;99.90;;;;;;5125193;27;20462;-69
2021/06/29 03:53:31;;;;;;;25.67;23.37;;;17.30;99.90;;;;;;5112167;27;20453;-68
2021/06/29 03:55:58;;;;;;;25.63;23.20;;;17.40;99.90;;;;;;5118604;27;20488;-69
2021/06/29 03:58:25;;;;;;;27.07;24.37;;;17.30;99.90;;;;;;5113239;27;20491;-70
2021/06/29 04:00:52;;;;;;;26.87;24.17;;;17.20;99.90;;;;;;5117615;27;20455;-71
2021/06/29 04:03:19;;;;;;;27.83;25.30;;;17.20;99.90;;;;;;5106215;28;20491;-69
2021/06/29 04:05:46;;;;;;;27.80;24.90;;;17.20;99.90;;;;;;5117281;27;20528;-69
2021/06/29 04:08:13;;;;;;;25.77;23.57;;;17.20;99.90;;;;;;5115752;27;20497;-69
2021/06/29 04:10:41;;;;;;;24.70;22.53;;;17.30;99.90;;;;;;5122095;28;20453;-72
2021/06/29 04:13:08;;;;;;;24.97;22.57;;;17.20;99.90;;;;;;5115531;28;20475;-68
2021/06/29 04:15:35;;;;;;;24.13;22.03;;;17.20;99.90;;;;;;5122389;28;20815;-69
2021/06/29 04:18:02;;;;;;;23.57;21.10;;;17.10;99.90;;;;;;5118739;28;21026;-69
2021/06/29 04:20:30;;;;;;;20.97;19.27;;;17.20;99.90;;;;;;5121570;28;20460;-69
2021/06/29 04:22:56;;;;;;;19.83;18.37;;;17.20;99.90;;;;;;5118361;28;20488;-70
2021/06/29 04:25:23;;;;;;;21.73;19.60;;;17.30;99.90;;;;;;5118443;28;20472;-70
2021/06/29 04:27:51;;;;;;;19.30;17.87;;;17.30;99.90;;;;;;5110975;28;20489;-69
2021/06/29 04:30:18;;;;;;;17.90;16.50;;;17.20;99.90;;;;;;5122017;27;20464;-69
2021/06/29 04:32:45;;;;;;;19.13;17.57;;;17.30;99.90;;;;;;5120222;27;20460;-69
2021/06/29 04:35:13;;;;;;;19.63;18.13;;;17.30;99.90;;;;;;5121579;27;20969;-71
2021/06/29 04:37:40;;;;;;;19.00;17.47;;;17.30;99.90;;;;;;5125725;27;20460;-71
2021/06/29 04:40:07;;;;;;;18.87;17.17;;;17.30;99.90;;;;;;5118147;27;20460;-69
2021/06/29 04:42:35;;;;;;;17.60;16.10;;;17.40;99.90;;;;;;5121800;27;20490;-71
2021/06/29 04:45:03;;;;;;;17.83;16.33;;;17.20;99.90;;;;;;5126040;27;20460;-69
2021/06/29 04:47:36;;;;;;;16.27;15.27;;;17.30;99.90;;;;;;5119473;27;20471;-70
2021/06/29 04:50:05;;;;;;;18.37;16.63;;;17.20;99.90;;;;;;5121131;27;20463;-70
2021/06/29 04:52:32;;;;;;;17.70;16.10;;;17.10;99.90;;;;;;5122533;27;20460;-70
2021/06/29 04:54:59;;;;;;;18.27;16.87;;;17.20;99.90;;;;;;5126870;27;20507;-69
2021/06/29 04:57:26;;;;;;;18.90;15.73;;;17.30;99.90;;;;;;5122500;27;20463;-70
2021/06/29 04:59:53;;;;;;;16.80;15.47;;;17.40;99.90;;;;;;5120741;27;20536;-69
2021/06/29 05:02:21;;;;;;;16.90;15.37;;;17.40;99.90;;;;;;5123375;27;20481;-68
2021/06/29 05:04:48;;;;;;;16.97;15.00;;;17.40;99.90;;;;;;5125232;27;20472;-70
2021/06/29 05:07:15;;;;;;;17.17;15.60;;;17.50;99.90;;;;;;5126577;27;20997;-72
2021/06/29 05:09:42;;;;;;;17.10;15.60;;;17.60;99.90;;;;;;5121737;27;20460;-70
2021/06/29 05:12:09;;;;;;;16.00;14.80;;;17.50;99.90;;;;;;5124296;27;20830;-69
2021/06/29 05:14:36;;;;;;;16.60;14.93;;;17.50;99.90;;;;;;5126208;27;20453;-69
2021/06/29 05:17:03;;;;;;;19.07;15.60;;;17.60;99.90;;;;;;5123145;27;20479;-72
2021/06/29 05:19:31;;;;;;;17.10;15.63;;;17.60;99.90;;;;;;5126213;27;20464;-71
2021/06/29 05:21:58;;;;;;;17.17;15.47;;;17.60;99.90;;;;;;5116359;27;20484;-71
2021/06/29 05:24:24;;;;;;;16.90;15.40;;;17.70;99.90;;;;;;5116904;27;21084;-71
2021/06/29 05:26:52;;;;;;;17.87;16.10;;;17.80;99.90;;;;;;5118042;27;20826;-70
2021/06/29 05:29:19;;;;;;;15.77;14.67;;;17.70;99.90;;;;;;5114109;27;20463;-70
2021/06/29 05:31:47;;;;;;;16.03;14.50;;;17.70;99.90;;;;;;5126365;27;20459;-69
2021/06/29 05:34:14;;;;;;;18.90;16.90;;;17.70;99.90;;;;;;5123525;27;20459;-71
2021/06/29 05:36:43;;;;;;;17.77;14.43;;;18.00;99.90;;;;;;5119876;27;20539;-69
2021/06/29 05:39:15;;;;;;;17.20;15.47;;;18.10;99.90;;;;;;5120103;27;20461;-70
2021/06/29 05:41:41;;;;;;;15.57;14.13;;;18.20;99.90;;;;;;5113518;27;20461;-70
2021/06/29 05:44:10;;;;;;;16.77;15.27;;;18.20;99.90;;;;;;5120598;27;20471;-71
2021/06/29 05:46:38;;;;;;;15.20;14.07;;;18.30;99.90;;;;;;5128898;27;20951;-70
2021/06/29 05:49:09;;;;;;;14.53;13.50;;;18.30;99.90;;;;;;5119015;27;20464;-69
2021/06/29 05:51:36;;;;;;;14.60;13.40;;;18.30;99.90;;;;;;5123896;27;20464;-70
2021/06/29 05:54:05;;;;;;;14.50;13.30;;;18.40;99.90;;;;;;5123973;27;20456;-72
2021/06/29 05:56:33;;;;;;;15.60;14.10;;;18.50;99.90;;;;;;5128711;27;20485;-72
2021/06/29 05:58:59;;;;;;;14.80;13.07;;;18.50;99.90;;;;;;5119166;27;21041;-70
2021/06/29 06:01:26;;;;;;;15.13;13.97;;;18.70;99.90;;;;;;5112191;27;20509;-70
2021/06/29 06:03:53;;;;;;;14.40;13.30;;;18.70;99.90;;;;;;5115166;27;20495;-70
2021/06/29 06:06:20;;;;;;;16.13;14.60;;;18.70;99.90;;;;;;5120556;27;20504;-70
2021/06/29 06:08:47;;;;;;;15.70;13.57;;;18.80;99.90;;;;;;5118093;27;20459;-72
2021/06/29 06:11:15;;;;;;;14.93;13.67;;;18.90;99.90;;;;;;5119952;27;20495;-70
2021/06/29 06:13:42;;;;;;;15.57;13.70;;;19.00;99.90;;;;;;5111058;27;20464;-70
2021/06/29 06:16:09;;;;;;;15.40;13.90;;;19.10;99.90;;;;;;5115454;27;20548;-69
2021/06/29 06:18:36;;;;;;;14.63;13.73;;;19.20;99.90;;;;;;5119785;27;20513;-72
2021/06/29 06:21:03;;;;;;;15.13;14.13;;;19.20;99.90;;;;;;5112290;27;20461;-69
2021/06/29 06:23:30;;;;;;;14.70;13.50;;;19.10;99.90;;;;;;5114504;27;20503;-73
2021/06/29 06:25:57;;;;;;;16.40;15.10;;;19.00;99.90;;;;;;5116486;27;20820;-71
2021/06/29 06:28:25;;;;;;;14.93;13.80;;;19.10;99.90;;;;;;5113234;27;20457;-71
2021/06/29 06:30:52;;;;;;;14.70;13.70;;;19.30;99.90;;;;;;5112995;27;20457;-72
2021/06/29 06:33:21;;;;;;;15.27;14.17;;;19.30;99.90;;;;;;5116586;27;21033;-70
2021/06/29 06:35:50;;;;;;;14.93;13.93;;;19.40;99.90;;;;;;5111857;27;20468;-70
2021/06/29 06:38:17;;;;;;;14.70;13.60;;;19.30;99.90;;;;;;5115529;27;20540;-72
2021/06/29 06:40:44;;;;;;;15.00;13.80;;;19.10;99.90;;;;;;5112045;27;20463;-71
2021/06/29 06:43:11;;;;;;;14.20;13.17;;;19.30;99.90;;;;;;5114009;27;20477;-72
2021/06/29 06:45:39;;;;;;;15.23;14.13;;;19.50;99.90;;;;;;5115319;27;20459;-72
2021/06/29 06:48:07;;;;;;;15.30;14.20;;;19.60;99.90;;;;;;5108807;27;20726;-70
2021/06/29 06:50:35;;;;;;;15.27;14.27;;;19.70;99.90;;;;;;5109393;27;20548;-71
2021/06/29 06:53:01;;;;;;;15.90;14.90;;;19.70;99.90;;;;;;5113092;27;20457;-71
2021/06/29 06:55:28;;;;;;;16.60;15.07;;;19.80;99.90;;;;;;5121264;27;20483;-70
2021/06/29 06:57:56;;;;;;;16.20;15.00;;;19.80;99.90;;;;;;5115372;27;20532;-73
2021/06/29 07:00:24;;;;;;;16.70;15.47;;;20.00;99.90;;;;;;5121251;27;20464;-72
2021/06/29 07:02:54;;;;;;;17.17;15.53;;;20.10;99.90;;;;;;5117521;27;20498;-71
2021/06/29 07:05:21;;;;;;;15.87;14.70;;;20.10;99.90;;;;;;5110499;27;20491;-73
2021/06/29 07:07:48;;;;;;;16.73;15.10;;;20.30;99.90;;;;;;5107180;27;20950;-71
2021/06/29 07:10:15;;;;;;;16.50;15.50;;;20.50;99.90;;;;;;5120483;27;20461;-73
2021/06/29 07:12:42;;;;;;;15.93;14.97;;;20.20;99.90;;;;;;5117809;27;20487;-70
2021/06/29 07:15:09;;;;;;;16.80;15.43;;;20.10;99.90;;;;;;5114558;27;20822;-70
2021/06/29 07:17:38;;;;;;;19.90;15.67;;;20.10;99.90;;;;;;5114737;27;20468;-72
2021/06/29 07:20:08;;;;;;;15.87;14.47;;;20.00;99.90;;;;;;5113409;27;20460;-71
2021/06/29 07:22:35;;;;;;;15.60;14.60;;;20.00;99.90;;;;;;5109401;27;20489;-70
2021/06/29 07:25:02;;;;;;;14.77;13.97;;;20.40;99.90;;;;;;5112970;27;20513;-70
2021/06/29 07:27:29;;;;;;;15.30;14.40;;;20.50;99.90;;;;;;5117994;27;20470;-70
2021/06/29 07:29:56;;;;;;;15.10;14.27;;;20.60;99.90;;;;;;5118996;27;20456;-70
2021/06/29 07:32:23;;;;;;;15.83;14.90;;;20.70;99.90;;;;;;5115065;27;20491;-70
2021/06/29 07:34:49;;;;;;;16.10;15.10;;;20.70;99.90;;;;;;5115180;27;20468;-75
2021/06/29 07:37:17;;;;;;;15.53;14.53;;;21.00;99.90;;;;;;5117250;27;20464;-72
2021/06/29 07:39:45;;;;;;;15.80;14.57;;;21.10;99.90;;;;;;5119820;27;20842;-73
2021/06/29 07:42:12;;;;;;;16.17;15.10;;;21.30;99.90;;;;;;5117608;27;20567;-70
2021/06/29 07:44:39;;;;;;;16.10;14.80;;;21.30;99.90;;;;;;5112437;27;20457;-71
2021/06/29 07:47:06;;;;;;;16.63;15.60;;;21.30;99.90;;;;;;5113793;27;20483;-71
2021/06/29 07:49:33;;;;;;;17.90;16.70;;;21.30;99.90;;;;;;5110469;27;20522;-71
2021/06/29 07:52:00;;;;;;;16.47;15.37;;;21.20;99.90;;;;;;5109074;27;20472;-74
2021/06/29 07:54:29;;;;;;;16.93;15.93;;;21.30;99.90;;;;;;5110544;27;20461;-71
2021/06/29 07:56:55;;;;;;;17.37;16.27;;;21.60;99.90;;;;;;5113082;27;21011;-72
2021/06/29 07:59:22;;;;;;;17.30;16.10;;;22.00;99.90;;;;;;5115597;27;20576;-71
2021/06/29 08:01:49;;;;;;;17.93;16.37;;;22.00;99.90;;;;;;5110929;27;20472;-71
2021/06/29 08:04:16;;;;;;;17.83;16.50;;;22.00;99.90;;;;;;5109829;27;20496;-71
2021/06/29 08:06:43;;;;;;;17.13;15.97;;;22.20;99.90;;;;;;5117130;27;20452;-74
2021/06/29 08:09:10;;;;;;;19.40;17.90;;;22.80;99.90;;;;;;5109762;27;20897;-72
2021/06/29 08:11:38;;;;;;;19.03;17.73;;;22.90;99.90;;;;;;5115426;28;20468;-74
2021/06/29 08:14:05;;;;;;;18.30;17.10;;;23.10;99.90;;;;;;5111176;28;20448;-73
2021/06/29 08:16:32;;;;;;;19.63;18.03;;;23.40;99.90;;;;;;5121476;28;20490;-71
2021/06/29 08:18:59;;;;;;;18.60;17.30;;;23.30;99.90;;;;;;5114355;28;20468;-74
2021/06/29 08:21:26;;;;;;;18.97;17.67;;;23.50;99.90;;;;;;5107065;28;20461;-73
2021/06/29 08:23:53;;;;;;;19.10;17.90;;;23.70;99.90;;;;;;5110946;28;20491;-71
2021/06/29 08:26:20;;;;;;;19.33;17.93;;;24.20;99.90;;;;;;5105434;28;21110;-72
2021/06/29 08:28:48;;;;;;;17.70;16.50;;;24.50;99.90;;;;;;5112894;28;20865;-74
2021/06/29 08:31:19;;;;;;;18.00;17.00;;;24.80;99.90;;;;;;5116000;28;20449;-71
2021/06/29 08:33:46;;;;;;;17.93;16.90;;;24.90;99.90;;;;;;5111639;28;20649;-71
2021/06/29 08:36:13;;;;;;;18.80;17.50;;;25.50;99.90;;;;;;5113561;28;20546;-71
2021/06/29 08:38:40;;;;;;;17.87;16.83;;;25.30;99.90;;;;;;5113970;28;20460;-71
2021/06/29 08:41:07;;;;;;;18.30;17.20;;;25.40;99.90;;;;;;5115697;28;20458;-73
2021/06/29 08:43:35;;;;;;;19.83;18.43;;;25.60;99.90;;;;;;5112548;28;20502;-71
2021/06/29 08:46:03;;;;;;;18.40;17.00;;;26.00;99.90;;;;;;5113270;28;20987;-71
2021/06/29 08:48:30;;;;;;;18.33;17.17;;;26.40;99.90;;;;;;5113288;28;21229;-71
2021/06/29 08:50:58;;;;;;;17.80;16.40;;;26.40;99.90;;;;;;5112454;28;20951;-70
2021/06/29 08:53:25;;;;;;;17.53;16.33;;;26.30;99.90;;;;;;5111654;28;20967;-70
2021/06/29 08:55:52;;;;;;;18.40;17.10;;;27.00;99.90;;;;;;5112074;27;21205;-71
2021/06/29 08:58:21;;;;;;;18.90;17.60;;;27.30;99.90;;;;;;5115941;28;20509;-73
2021/06/29 09:00:49;;;;;;;18.27;17.00;;;27.20;99.90;;;;;;5110386;28;20466;-70
2021/06/29 09:03:17;;;;;;;17.63;16.53;;;27.10;99.90;;;;;;5111054;28;21111;-70
2021/06/29 09:05:45;;;;;;;17.80;16.50;;;26.40;99.90;;;;;;5115014;28;20455;-70
2021/06/29 09:08:14;;;;;;;19.70;18.40;;;26.20;99.90;;;;;;5109198;28;20555;-69
2021/06/29 09:10:43;;;;;;;18.87;17.50;;;25.60;99.90;;;;;;5110097;28;20488;-72
2021/06/29 09:13:11;;;;;;;18.03;16.73;;;25.70;99.90;;;;;;5113029;28;20461;-71
2021/06/29 09:15:44;;;;;;;17.73;16.70;;;25.80;99.90;;;;;;5117089;28;20465;-72
2021/06/29 09:18:14;;;;;;;17.93;16.70;;;25.80;99.90;;;;;;5111817;27;20456;-71
2021/06/29 09:20:44;;;;;;;18.57;17.47;;;25.70;99.90;;;;;;5120551;27;20502;-71
2021/06/29 09:23:14;;;;;;;18.60;16.97;;;25.70;99.90;;;;;;5108440;27;20863;-72
2021/06/29 09:25:42;;;;;;;18.20;17.07;;;26.00;99.90;;;;;;5110546;27;20464;-71
2021/06/29 09:28:14;;;;;;;18.63;17.27;;;26.20;99.90;;;;;;5113334;27;20465;-74
2021/06/29 09:30:45;;;;;;;18.07;16.87;;;26.50;99.90;;;;;;5121482;27;20464;-71
2021/06/29 09:33:14;;;;;;;18.33;17.03;;;26.60;99.90;;;;;;5113577;27;21309;-71
2021/06/29 09:35:45;;;;;;;18.70;17.50;;;26.30;99.90;;;;;;5112931;27;20972;-72
2021/06/29 09:38:22;;;;;;;17.17;16.07;;;26.40;99.90;;;;;;5112406;27;20462;-75
2021/06/29 09:40:54;;;;;;;19.40;18.10;;;27.30;99.90;;;;;;5116628;27;20478;-75
2021/06/29 09:43:22;;;;;;;19.20;17.90;;;27.90;99.90;;;;;;5113649;27;20488;-72
2021/06/29 09:45:52;;;;;;;19.37;17.90;;;27.90;99.90;;;;;;5117756;27;21392;-74
2021/06/29 09:48:29;;;;;;;18.07;17.00;;;27.20;99.90;;;;;;5113346;27;21009;-73
2021/06/29 09:51:01;;;;;;;19.97;18.60;;;27.00;99.90;;;;;;5115445;27;20472;-74
2021/06/29 09:53:32;;;;;;;18.30;17.20;;;26.70;99.90;;;;;;5113504;27;20788;-72
2021/06/29 09:56:00;;;;;;;20.17;18.77;;;27.20;99.90;;;;;;5118075;27;20491;-73
2021/06/29 09:58:31;;;;;;;20.03;18.83;;;28.10;99.90;;;;;;5117600;27;20506;-73
2021/06/29 10:00:59;;;;;;;19.80;18.60;;;28.10;99.90;;;;;;5120567;27;20453;-73
2021/06/29 10:03:32;;;;;;;20.77;19.47;;;28.10;99.90;;;;;;5114802;27;20503;-73
2021/06/29 10:06:03;;;;;;;21.10;19.60;;;28.40;99.90;;;;;;5115989;27;20570;-75
2021/06/29 10:08:33;;;;;;;21.23;19.77;;;27.40;99.90;;;;;;5116331;27;20473;-72
2021/06/29 10:11:12;;;;;;;21.20;19.80;;;27.40;99.90;;;;;;5119716;27;20552;-72
2021/06/29 10:13:41;;;;;;;20.40;18.97;;;27.90;99.90;;;;;;5119614;27;20468;-76
2021/06/29 10:16:10;;;;;;;19.17;17.90;;;28.30;99.90;;;;;;5113328;27;20465;-72
2021/06/29 10:18:40;;;;;;;20.63;19.00;;;28.90;99.90;;;;;;5110221;27;20464;-71
2021/06/29 10:21:20;;;;;;;21.97;20.10;;;29.50;99.90;;;;;;5110091;27;20461;-74
2021/06/29 10:23:47;;;;;;;21.37;19.87;;;29.70;99.90;;;;;;5109802;27;20583;-72
2021/06/29 10:26:15;;;;;;;20.63;19.23;;;30.00;99.90;;;;;;5115339;27;20452;-73
2021/06/29 10:28:44;;;;;;;19.40;18.10;;;30.30;99.90;;;;;;5113053;27;20460;-72
2021/06/29 10:31:20;;;;;;;19.67;18.47;;;31.00;99.90;;;;;;5114959;27;20545;-72
2021/06/29 10:33:48;;;;;;;20.37;18.90;;;30.00;99.90;;;;;;5111545;27;20461;-71
2021/06/29 10:36:18;;;;;;;19.47;18.13;;;30.20;99.90;;;;;;5110420;27;20463;-72
2021/06/29 10:38:45;;;;;;;18.53;17.53;;;30.00;99.90;;;;;;5112797;27;20460;-71
2021/06/29 10:41:13;;;;;;;19.53;18.17;;;30.40;99.90;;;;;;5114690;27;20456;-71
2021/06/29 10:43:42;;;;;;;16.90;16.00;;;30.80;99.90;;;;;;5110981;27;20469;-71
2021/06/29 10:46:16;;;;;;;17.53;16.63;;;30.50;99.90;;;;;;5108930;27;20461;-72
2021/06/29 10:48:42;;;;;;;16.40;15.63;;;30.60;99.90;;;;;;5113468;27;20457;-71
2021/06/29 10:51:14;;;;;;;16.50;15.57;;;30.20;99.90;;;;;;5113091;27;20465;-71
2021/06/29 10:53:44;;;;;;;16.97;15.87;;;30.10;99.90;;;;;;5113808;27;20966;-73
2021/06/29 10:56:17;;;;;;;16.67;15.83;;;30.60;99.90;;;;;;5100040;27;20486;-73
2021/06/29 10:58:46;;;;;;;15.90;15.10;;;30.20;99.90;;;;;;5096976;28;20978;-73
2021/06/29 11:01:37;;;;;;;15.40;14.70;;;30.00;99.90;;;;;;5093678;28;20530;-70
2021/06/29 11:04:07;;;;;;;14.87;14.27;;;30.00;99.90;;;;;;5099131;28;20484;-70
2021/06/29 11:06:41;;;;;;;16.13;15.20;;;29.90;99.90;;;;;;5097943;28;20457;-71
2021/06/29 11:09:11;;;;;;;16.50;15.70;;;30.10;99.90;;;;;;5089429;28;20762;-70
2021/06/29 11:11:38;;;;;;;16.90;16.10;;;30.30;99.90;;;;;;5089461;28;20831;-69
2021/06/29 11:14:26;;;;;;;16.20;15.40;;;30.10;99.90;;;;;;5088415;28;20458;-72
2021/06/29 11:17:00;;;;;;;17.77;16.77;;;30.30;99.90;;;;;;5090991;28;20464;-73
2021/06/29 11:20:04;;;;;;;17.00;15.80;;;30.30;99.90;;;;;;5093038;28;20600;-70
2021/06/29 11:22:51;;;;;;;17.07;16.17;;;30.10;99.90;;;;;;5089226;28;20532;-70
2021/06/29 11:25:32;;;;;;;16.40;15.60;;;30.30;99.90;;;;;;5096862;28;20943;-70
2021/06/29 11:28:05;;;;;;;17.20;16.30;;;30.90;99.90;;;;;;5094796;28;21018;-71
2021/06/29 11:30:55;;;;;;;17.37;16.37;;;31.40;99.20;;;;;;5094053;28;20457;-70
2021/06/29 11:33:44;;;;;;;16.63;15.83;;;31.30;99.70;;;;;;5090407;28;21086;-70
2021/06/29 11:36:44;;;;;;;16.70;15.90;;;31.00;99.90;;;;;;5095710;28;20465;-73
2021/06/29 11:39:33;;;;;;;16.87;15.87;;;31.10;99.70;;;;;;5093687;28;20958;-71
2021/06/29 11:55:20;;;;;;;17.50;16.50;;;30.20;99.90;;;;;;5134660;27;20544;-68
2021/06/29 11:57:50;;;;;;;17.57;16.37;;;32.00;99.00;;;;;;5135575;27;20464;-69
2021/06/29 12:00:24;;;;;;;17.60;16.60;;;32.80;98.30;;;;;;5128228;27;20500;-72
2021/06/29 12:02:53;;;;;;;17.97;16.97;;;32.50;99.00;;;;;;5138298;27;20463;-71
2021/06/29 12:05:21;;;;;;;17.73;16.67;;;31.30;98.80;;;;;;5129245;27;20811;-71
2021/06/29 12:07:50;;;;;;;16.60;15.80;;;30.40;99.90;;;;;;5129853;27;20465;-71
2021/06/29 12:10:20;;;;;;;16.50;15.70;;;30.40;99.90;;;;;;5136810;27;20486;-73
2021/06/29 12:12:49;;;;;;;17.20;16.30;;;30.40;99.70;;;;;;5126299;27;20479;-74
2021/06/29 12:15:18;;;;;;;16.40;15.60;;;31.40;99.60;;;;;;5136916;27;20517;-74
2021/06/29 12:17:52;;;;;;;16.80;15.90;;;31.40;99.70;;;;;;5136876;27;20565;-74
2021/06/29 12:20:20;;;;;;;16.10;15.30;;;30.60;99.90;;;;;;5132145;27;20818;-72
2021/06/29 12:22:49;;;;;;;16.13;15.30;;;30.20;99.90;;;;;;5129333;27;21008;-71
2021/06/29 12:25:30;;;;;;;15.97;15.07;;;29.80;99.90;;;;;;5134030;27;20463;-72
2021/06/29 12:27:59;;;;;;;16.27;15.37;;;28.60;99.90;;;;;;5129629;27;20456;-72
2021/06/29 12:30:37;;;;;;;16.47;15.40;;;29.00;99.90;;;;;;5126268;27;20463;-75
2021/06/29 12:33:16;;;;;;;17.50;16.70;;;30.10;99.90;;;;;;5128791;27;20484;-75
2021/06/29 12:35:44;;;;;;;17.30;16.20;;;31.20;98.90;;;;;;5128797;27;20554;-74
2021/06/29 12:38:17;;;;;;;17.80;16.90;;;31.60;99.00;;;;;;5130776;27;20451;-75
2021/06/29 12:40:47;;;;;;;16.80;15.90;;;31.30;99.00;;;;;;5124499;27;20995;-72
2021/06/29 12:43:19;;;;;;;16.43;15.63;;;30.50;99.90;;;;;;5129018;27;20716;-73
2021/06/29 12:45:46;;;;;;;16.67;15.83;;;31.20;99.90;;;;;;5123848;27;20853;-72
2021/06/29 12:48:51;;;;;;;17.47;16.50;;;31.80;98.20;;;;;;5125855;27;20455;-75
2021/06/29 12:51:18;;;;;;;17.60;16.50;;;32.00;96.60;;;;;;5120702;27;20831;-73